Time;durP1;ratioP1;P1;durP2;ratioP2;P2;SDS_P1;SDS_P2;PMS_P1;PMS_P2;Temp;Humidity;BMP_temperature;BMP_pressure;BME280_temperature;BME280_humidity;BME280_pressure;Samples;Min_cycle;Max_cycle;Signal;HPM_P1;HPM_P2
2021/12/22 00:02:18;;;;;;;9.07;5.75;;;-0.40;99.90;;;;;;5046068;28;20052;-86
2021/12/22 00:04:46;;;;;;;9.93;5.35;;;-0.50;99.90;;;;;;5048046;28;20045;-87
2021/12/22 00:07:13;;;;;;;15.05;6.30;;;-1.40;99.90;;;;;;5045483;28;20381;-87
2021/12/22 00:09:38;;;;;;;9.38;5.30;;;-0.50;99.90;;;;;;5029193;28;20040;-86
2021/12/22 00:12:05;;;;;;;9.00;4.97;;;-0.60;99.90;;;;;;5028443;28;20041;-86
2021/12/22 00:14:30;;;;;;;14.93;5.75;;;-0.70;99.90;;;;;;5046220;28;20052;-87
2021/12/22 00:16:56;;;;;;;10.43;5.28;;;0.50;99.90;;;;;;5044427;28;20040;-87
2021/12/22 00:19:22;;;;;;;10.23;5.38;;;-0.80;99.90;;;;;;5025657;28;20052;-87
2021/12/22 00:21:48;;;;;;;14.88;5.47;;;-0.80;99.90;;;;;;5059997;28;20048;-87
2021/12/22 00:24:13;;;;;;;16.25;5.40;;;0.20;99.90;;;;;;5042187;28;20035;-87
2021/12/22 00:26:39;;;;;;;11.07;5.68;;;-0.80;99.90;;;;;;5043021;28;20477;-87
2021/12/22 00:29:06;;;;;;;11.25;6.05;;;-0.80;99.90;;;;;;5041460;28;20434;-86
2021/12/22 00:31:40;;;;;;;8.88;5.45;;;0.20;99.90;;;;;;5043254;28;20144;-86
2021/12/22 00:34:14;;;;;;;12.80;5.13;;;-0.90;99.90;;;;;;5061514;28;20053;-87
2021/12/22 00:36:40;;;;;;;8.30;5.07;;;-1.00;99.90;;;;;;5044615;28;20106;-86
2021/12/22 00:39:06;;;;;;;10.00;4.00;;;-1.00;99.90;;;;;;5029669;28;20055;-87
2021/12/22 00:41:32;;;;;;;12.23;6.00;;;-1.10;99.90;;;;;;5044359;28;20057;-87
2021/12/22 00:43:58;;;;;;;11.05;4.75;;;-1.00;99.90;;;;;;5029797;28;20049;-86
2021/12/22 00:46:23;;;;;;;9.25;5.60;;;-1.20;99.90;;;;;;5028073;28;20102;-87
2021/12/22 00:48:49;;;;;;;10.07;5.60;;;-1.20;99.90;;;;;;5045986;28;20045;-86
2021/12/22 00:51:15;;;;;;;10.80;5.40;;;-1.40;99.90;;;;;;5045669;28;20041;-86
2021/12/22 00:53:41;;;;;;;10.90;5.85;;;0.80;99.90;;;;;;5061253;28;20049;-86
2021/12/22 00:56:07;;;;;;;11.52;5.53;;;-1.30;99.90;;;;;;5028866;28;20448;-86
2021/12/22 00:58:34;;;;;;;10.00;5.82;;;0.90;99.90;;;;;;5043785;28;20074;-85
2021/12/22 01:01:00;;;;;;;8.65;5.15;;;-1.50;99.90;;;;;;5046160;28;20097;-85
2021/12/22 01:03:26;;;;;;;16.67;6.55;;;-1.50;99.90;;;;;;5027977;28;20049;-86
2021/12/22 01:05:52;;;;;;;13.20;5.60;;;-1.60;99.90;;;;;;5028903;28;20472;-86
2021/12/22 01:08:18;;;;;;;11.00;5.03;;;0.30;99.90;;;;;;5028804;28;20086;-85
2021/12/22 01:10:44;;;;;;;11.35;5.50;;;0.40;99.90;;;;;;5045287;28;20467;-86
2021/12/22 01:13:10;;;;;;;10.07;5.65;;;-1.70;99.90;;;;;;5045785;28;20049;-86
2021/12/22 01:15:37;;;;;;;14.05;6.50;;;-1.70;99.90;;;;;;5029904;28;20084;-87
2021/12/22 01:18:13;;;;;;;15.02;6.47;;;-1.80;99.90;;;;;;5029195;28;20067;-86
2021/12/22 01:20:59;;;;;;;10.75;6.20;;;-1.10;99.90;;;;;;5043757;28;20622;-86
2021/12/22 01:23:26;;;;;;;15.65;6.78;;;-1.90;99.90;;;;;;5027988;28;20048;-86
2021/12/22 01:25:52;;;;;;;13.27;6.13;;;-1.90;99.90;;;;;;5029359;28;20041;-85
2021/12/22 01:28:23;;;;;;;14.00;6.43;;;-0.60;99.90;;;;;;5027355;28;20098;-86
2021/12/22 01:30:49;;;;;;;12.93;6.70;;;-2.00;99.90;;;;;;5045112;28;20082;-86
2021/12/22 01:33:16;;;;;;;12.27;6.20;;;-2.00;99.90;;;;;;5059853;28;20503;-86
2021/12/22 01:35:43;;;;;;;11.13;6.70;;;-2.10;99.90;;;;;;5044861;28;20132;-86
2021/12/22 01:38:09;;;;;;;15.48;7.55;;;-2.10;99.90;;;;;;5044113;28;20095;-86
2021/12/22 01:40:39;;;;;;;12.65;6.47;;;-2.10;99.90;;;;;;5044940;28;20063;-86
2021/12/22 01:43:05;;;;;;;16.23;6.43;;;-2.20;99.90;;;;;;5028131;28;20087;-86
2021/12/22 01:45:56;;;;;;;16.42;7.95;;;-3.50;99.90;;;;;;5026356;28;20069;-86
2021/12/22 01:49:11;;;;;;;16.73;7.43;;;-2.20;99.90;;;;;;5028298;28;20062;-86
2021/12/22 01:52:01;;;;;;;11.20;5.95;;;-2.20;99.90;;;;;;5047268;28;20238;-86
2021/12/22 01:54:28;;;;;;;15.55;7.70;;;-2.30;99.90;;;;;;5026337;28;20057;-86
2021/12/22 01:56:59;;;;;;;11.57;7.22;;;-2.30;99.90;;;;;;5044707;28;21040;-86
2021/12/22 01:59:25;;;;;;;14.07;7.70;;;-2.40;99.90;;;;;;5043156;28;20107;-86
2021/12/22 02:01:51;;;;;;;18.23;7.45;;;-1.80;99.90;;;;;;5043775;28;20045;-86
2021/12/22 02:04:17;;;;;;;18.05;6.95;;;-2.40;99.90;;;;;;5027679;28;20051;-86
2021/12/22 02:06:46;;;;;;;11.23;6.28;;;-1.50;99.90;;;;;;5026084;28;20049;-86
2021/12/22 02:09:21;;;;;;;12.38;6.53;;;-2.50;99.90;;;;;;5028017;28;20155;-86
2021/12/22 02:11:46;;;;;;;11.13;6.22;;;-2.50;99.90;;;;;;5042240;28;20045;-86
2021/12/22 02:14:12;;;;;;;17.35;7.45;;;-2.50;99.90;;;;;;5044965;28;20087;-86
2021/12/22 02:16:40;;;;;;;14.35;7.13;;;-2.50;99.90;;;;;;5026331;28;20116;-86
2021/12/22 02:19:08;;;;;;;12.57;7.32;;;-2.60;99.90;;;;;;5043480;28;20044;-86
2021/12/22 02:21:41;;;;;;;15.57;6.68;;;-2.60;99.90;;;;;;5027604;28;20072;-86
2021/12/22 02:24:07;;;;;;;11.43;6.68;;;-2.70;99.90;;;;;;5042291;28;20302;-86
2021/12/22 02:29:06;;;;;;;14.95;7.63;;;-2.70;99.90;;;;;;5042375;28;20084;-85
2021/12/22 02:31:43;;;;;;;16.67;7.95;;;-2.70;99.90;;;;;;5028130;28;20041;-87
2021/12/22 02:34:14;;;;;;;15.75;6.93;;;-2.70;99.90;;;;;;5027480;28;20060;-87
2021/12/22 02:36:42;;;;;;;17.88;8.65;;;-2.70;99.90;;;;;;5025540;28;20048;-86
2021/12/22 02:39:08;;;;;;;16.13;7.80;;;-2.70;99.90;;;;;;5027846;28;20049;-86
2021/12/22 02:41:36;;;;;;;15.48;8.38;;;-1.30;99.90;;;;;;5041807;28;20098;-86
2021/12/22 02:44:03;;;;;;;13.88;7.45;;;-2.80;99.90;;;;;;5044217;28;20056;-86
2021/12/22 02:46:31;;;;;;;16.80;7.82;;;-2.80;99.90;;;;;;5042158;28;20519;-86
2021/12/22 02:49:01;;;;;;;18.90;7.68;;;-1.10;99.90;;;;;;5026765;28;20119;-86
2021/12/22 02:51:30;;;;;;;10.98;7.38;;;-2.80;99.90;;;;;;5044258;28;20053;-86
2021/12/22 02:54:14;;;;;;;13.88;7.45;;;-2.90;99.90;;;;;;5042150;28;20412;-86
2021/12/22 03:02:14;;;;;;;13.60;7.50;;;-2.90;99.90;;;;;;5043119;28;20254;-87
2021/12/22 03:04:52;;;;;;;13.02;7.07;;;-2.00;99.90;;;;;;5026793;28;20437;-86
2021/12/22 03:07:22;;;;;;;14.27;7.20;;;-3.00;99.90;;;;;;5041032;28;20044;-86
2021/12/22 03:10:00;;;;;;;12.75;7.28;;;-3.00;99.90;;;;;;5044135;28;20040;-86
2021/12/22 03:12:28;;;;;;;12.32;7.32;;;-3.00;99.90;;;;;;5042687;28;20051;-86
2021/12/22 03:14:54;;;;;;;13.07;8.00;;;-1.00;99.90;;;;;;5025672;28;20045;-86
2021/12/22 03:17:20;;;;;;;11.80;8.15;;;-3.00;99.90;;;;;;5026591;28;20045;-86
2021/12/22 03:19:45;;;;;;;15.38;7.65;;;-3.10;99.90;;;;;;5041342;28;20358;-86
2021/12/22 03:22:12;;;;;;;16.52;8.50;;;-3.10;99.90;;;;;;5026707;28;20053;-86
2021/12/22 03:24:40;;;;;;;14.68;7.05;;;-3.10;99.90;;;;;;5041090;28;20055;-86
2021/12/22 03:27:07;;;;;;;16.73;7.55;;;-3.10;99.90;;;;;;5026950;28;20044;-86
2021/12/22 03:29:35;;;;;;;16.50;7.20;;;-3.10;99.90;;;;;;5025402;28;20112;-86
2021/12/22 03:32:01;;;;;;;17.77;7.43;;;-3.10;99.90;;;;;;5042009;28;20045;-86
2021/12/22 03:34:27;;;;;;;15.20;7.45;;;-3.10;99.90;;;;;;5026879;28;20052;-87
2021/12/22 03:36:53;;;;;;;22.48;7.75;;;-3.10;99.90;;;;;;5041345;28;20043;-87
2021/12/22 03:39:20;;;;;;;14.05;7.95;;;-3.10;99.90;;;;;;5043025;28;20079;-87
2021/12/22 03:41:47;;;;;;;12.35;7.43;;;-3.20;99.90;;;;;;5024061;28;20053;-86
2021/12/22 03:44:14;;;;;;;13.90;7.63;;;-3.20;99.90;;;;;;5043263;28;20080;-87
2021/12/22 03:46:40;;;;;;;14.75;8.07;;;-3.20;99.90;;;;;;5041731;28;20221;-87
2021/12/22 03:49:07;;;;;;;14.05;7.53;;;-3.20;99.90;;;;;;5025739;28;20071;-87
2021/12/22 03:51:35;;;;;;;17.02;7.82;;;-3.20;99.90;;;;;;5043458;28;20047;-87
2021/12/22 03:54:01;;;;;;;19.58;7.93;;;-3.20;99.90;;;;;;5041208;28;20588;-87
2021/12/22 03:56:27;;;;;;;16.52;7.40;;;-3.30;99.90;;;;;;5026908;28;20047;-87
2021/12/22 03:58:53;;;;;;;18.13;7.85;;;-3.30;99.90;;;;;;5057388;28;20574;-87
2021/12/22 04:01:19;;;;;;;16.55;7.07;;;-3.30;99.90;;;;;;5043540;28;20041;-87
2021/12/22 04:03:48;;;;;;;18.58;7.75;;;-2.90;99.90;;;;;;5025049;28;20365;-87
2021/12/22 04:06:14;;;;;;;12.98;7.72;;;-3.30;99.90;;;;;;5026762;28;20045;-86
2021/12/22 04:08:39;;;;;;;13.93;7.60;;;-3.30;99.90;;;;;;5030502;28;20175;-87
2021/12/22 04:11:05;;;;;;;13.23;8.00;;;-3.30;99.90;;;;;;5044787;28;20045;-88
2021/12/22 04:13:31;;;;;;;18.98;7.13;;;-3.30;99.90;;;;;;5053098;28;20049;-88
2021/12/22 04:15:57;;;;;;;13.40;7.20;;;-2.50;99.90;;;;;;5051878;28;20055;-87
2021/12/22 04:18:23;;;;;;;26.85;9.52;;;-3.30;99.90;;;;;;5054170;28;20053;-88
2021/12/22 04:20:49;;;;;;;19.80;8.43;;;-3.30;99.90;;;;;;5028165;28;20036;-88
2021/12/22 04:23:15;;;;;;;20.30;7.75;;;-3.30;99.90;;;;;;5029786;28;20040;-88
2021/12/22 04:25:41;;;;;;;15.65;7.72;;;-3.30;99.90;;;;;;5062645;28;20481;-87
2021/12/22 04:28:10;;;;;;;18.55;7.90;;;-3.30;99.90;;;;;;5045851;28;20041;-88
2021/12/22 04:30:48;;;;;;;18.10;8.40;;;-2.90;99.90;;;;;;5030214;28;20178;-88
2021/12/22 04:33:15;;;;;;;15.75;7.43;;;-3.30;99.90;;;;;;5043683;28;20078;-88
2021/12/22 04:35:41;;;;;;;18.33;8.65;;;-3.30;99.90;;;;;;5046870;28;20052;-88
2021/12/22 04:38:07;;;;;;;20.35;9.60;;;-3.30;99.90;;;;;;5028631;28;20041;-88
2021/12/22 04:40:33;;;;;;;20.92;11.00;;;-3.30;99.90;;;;;;5047837;28;20047;-88
2021/12/22 04:42:59;;;;;;;19.48;9.77;;;-3.30;99.90;;;;;;5014046;28;20048;-88
2021/12/22 04:45:25;;;;;;;21.27;9.82;;;-3.30;99.90;;;;;;5044492;28;20823;-88
2021/12/22 04:47:51;;;;;;;25.17;9.73;;;-3.30;99.90;;;;;;5046423;28;20106;-88
2021/12/22 04:50:20;;;;;;;21.17;9.20;;;-3.20;99.90;;;;;;5026779;28;20049;-88
2021/12/22 04:52:54;;;;;;;16.35;8.35;;;-3.20;99.90;;;;;;5030524;28;20103;-88
2021/12/22 04:55:21;;;;;;;17.45;9.40;;;-3.20;99.90;;;;;;5044832;28;20084;-88
2021/12/22 04:57:46;;;;;;;16.65;8.68;;;-3.20;99.90;;;;;;5033243;28;20155;-88
2021/12/22 05:00:14;;;;;;;22.77;8.68;;;-3.20;99.90;;;;;;5050747;28;20041;-88
2021/12/22 05:02:40;;;;;;;17.17;8.20;;;-2.90;99.90;;;;;;5049633;28;20041;-88
2021/12/22 05:05:07;;;;;;;19.00;8.90;;;-3.20;99.90;;;;;;5034956;28;20037;-88
2021/12/22 05:07:32;;;;;;;14.38;8.35;;;-3.20;99.90;;;;;;5047541;28;20106;-88
2021/12/22 05:09:58;;;;;;;15.68;8.73;;;-3.20;99.90;;;;;;5049569;28;20706;-88
2021/12/22 05:12:24;;;;;;;17.25;8.35;;;-3.20;99.90;;;;;;5045296;28;20131;-88
2021/12/22 05:14:51;;;;;;;12.68;7.97;;;-1.70;99.90;;;;;;5028771;28;20539;-88
2021/12/22 05:17:22;;;;;;;15.20;7.72;;;-3.20;99.90;;;;;;5045078;28;20053;-87
2021/12/22 05:19:48;;;;;;;17.63;8.38;;;-3.20;99.90;;;;;;5027378;28;20090;-88
2021/12/22 05:22:14;;;;;;;14.30;8.40;;;-3.20;99.90;;;;;;5045578;28;20041;-88
2021/12/22 05:24:39;;;;;;;13.60;7.53;;;-0.80;99.90;;;;;;5042668;28;20049;-88
2021/12/22 05:27:08;;;;;;;15.00;8.63;;;-3.20;99.90;;;;;;5029374;28;20190;-88
2021/12/22 05:29:34;;;;;;;14.90;8.23;;;-3.20;99.90;;;;;;5027542;28;20045;-88
2021/12/22 05:32:01;;;;;;;18.58;8.35;;;-3.20;99.90;;;;;;5045299;28;20404;-88
2021/12/22 05:34:27;;;;;;;13.10;7.95;;;-3.20;99.90;;;;;;5028469;28;20044;-88
2021/12/22 05:36:54;;;;;;;15.43;7.43;;;-3.20;99.90;;;;;;5026192;28;20049;-88
2021/12/22 05:39:20;;;;;;;23.52;8.98;;;-3.20;99.90;;;;;;5028710;28;20053;-88
2021/12/22 05:41:45;;;;;;;13.80;7.57;;;-3.20;99.90;;;;;;5042477;28;20041;-88
2021/12/22 05:44:11;;;;;;;19.60;7.97;;;-1.80;99.90;;;;;;5045396;28;20056;-87
2021/12/22 05:46:37;;;;;;;18.10;7.45;;;-3.20;99.90;;;;;;5043165;28;20106;-87
2021/12/22 05:49:03;;;;;;;13.23;7.55;;;-3.20;99.90;;;;;;5027903;28;20468;-88
2021/12/22 05:51:32;;;;;;;16.20;7.65;;;-3.10;99.90;;;;;;5028066;28;20109;-88
2021/12/22 05:53:58;;;;;;;14.70;7.97;;;-3.10;99.90;;;;;;5043082;28;20131;-88
2021/12/22 05:56:25;;;;;;;17.90;8.50;;;-3.10;99.90;;;;;;5044795;28;20632;-88
2021/12/22 05:58:51;;;;;;;15.18;7.93;;;-3.10;99.90;;;;;;5025917;28;20742;-88
2021/12/22 06:01:17;;;;;;;18.77;9.13;;;-3.20;99.90;;;;;;5045116;28;20044;-88
2021/12/22 06:03:42;;;;;;;15.60;8.07;;;-3.10;99.90;;;;;;5026498;28;20560;-88
2021/12/22 06:06:10;;;;;;;18.23;8.70;;;-3.10;99.90;;;;;;5044912;28;20049;-88
2021/12/22 06:08:36;;;;;;;20.70;8.63;;;-3.10;99.90;;;;;;5027453;28;20040;-88
2021/12/22 06:11:01;;;;;;;15.93;8.20;;;-3.00;99.90;;;;;;5043203;28;20056;-88
2021/12/22 06:13:27;;;;;;;14.50;8.18;;;-3.10;99.90;;;;;;5028317;28;20110;-87
2021/12/22 06:15:53;;;;;;;18.65;9.13;;;-2.10;99.90;;;;;;5041861;28;20064;-88
2021/12/22 06:18:19;;;;;;;18.65;9.50;;;-3.10;99.90;;;;;;5027704;28;20044;-87
2021/12/22 06:20:44;;;;;;;15.20;8.25;;;-3.00;99.90;;;;;;5025704;28;20081;-88
2021/12/22 06:23:11;;;;;;;19.30;8.13;;;-3.00;99.90;;;;;;5027386;28;20051;-88
2021/12/22 06:25:37;;;;;;;16.63;8.98;;;-2.90;99.90;;;;;;5043795;28;20053;-88
2021/12/22 06:28:04;;;;;;;19.75;9.25;;;-2.90;99.90;;;;;;5042672;28;20053;-88
2021/12/22 06:30:30;;;;;;;19.00;8.50;;;-2.90;99.90;;;;;;5043118;28;20041;-88
2021/12/22 06:32:56;;;;;;;17.08;8.20;;;-2.90;99.90;;;;;;5041439;28;20045;-89
2021/12/22 06:35:22;;;;;;;18.88;8.48;;;-2.90;99.90;;;;;;5044608;28;20037;-90
2021/12/22 06:37:48;;;;;;;17.80;8.10;;;-2.80;99.90;;;;;;5024810;28;20514;-88
2021/12/22 06:40:14;;;;;;;23.17;9.30;;;-2.80;99.90;;;;;;5027508;28;20037;-87
2021/12/22 06:42:41;;;;;;;20.80;9.13;;;-2.70;99.90;;;;;;5043611;28;20056;-89
2021/12/22 06:45:09;;;;;;;18.48;8.75;;;-2.80;99.90;;;;;;5026063;28;20508;-88
2021/12/22 06:47:35;;;;;;;17.70;7.75;;;-2.70;99.90;;;;;;5043420;28;20480;-87
2021/12/22 06:50:02;;;;;;;13.82;7.53;;;-2.70;99.90;;;;;;5025141;28;20041;-89
2021/12/22 06:52:28;;;;;;;17.90;8.15;;;-2.70;99.90;;;;;;5027410;28;20052;-89
2021/12/22 06:54:54;;;;;;;17.27;8.43;;;-2.80;99.90;;;;;;5025607;28;20053;-89
2021/12/22 06:57:21;;;;;;;22.05;8.07;;;-2.70;99.90;;;;;;5026157;28;20730;-87
2021/12/22 06:59:49;;;;;;;23.10;8.40;;;-2.40;99.90;;;;;;5020196;28;20048;-86
2021/12/22 07:02:16;;;;;;;12.70;7.20;;;-2.70;99.90;;;;;;5026248;28;20368;-87
2021/12/22 07:04:41;;;;;;;17.25;8.15;;;-2.70;99.90;;;;;;5026875;28;20037;-86
2021/12/22 07:07:07;;;;;;;19.90;8.88;;;-1.00;99.90;;;;;;5024358;28;20757;-90
2021/12/22 07:09:33;;;;;;;18.17;8.10;;;-2.40;99.90;;;;;;5027010;28;20473;-89
2021/12/22 07:11:59;;;;;;;14.98;7.55;;;-2.70;99.90;;;;;;5024576;28;20098;-88
2021/12/22 07:14:25;;;;;;;18.05;7.63;;;-2.70;99.90;;;;;;5027528;28;20107;-87
2021/12/22 07:16:51;;;;;;;15.77;7.75;;;-2.70;99.90;;;;;;5043057;28;20049;-88
2021/12/22 07:19:17;;;;;;;17.98;8.85;;;-2.70;99.90;;;;;;5044517;28;20443;-88
2021/12/22 07:21:44;;;;;;;19.95;8.30;;;-2.70;99.90;;;;;;5049044;28;20036;-85
2021/12/22 07:24:19;;;;;;;18.35;8.43;;;-2.70;99.90;;;;;;5027346;28;20459;-87
2021/12/22 07:26:44;;;;;;;13.57;7.05;;;-2.70;99.90;;;;;;5048305;28;20617;-87
2021/12/22 07:29:11;;;;;;;15.02;8.68;;;-1.50;99.90;;;;;;5028879;28;20131;-89
2021/12/22 07:31:37;;;;;;;18.95;8.75;;;-2.70;99.90;;;;;;5031031;28;20048;-88
2021/12/22 07:34:19;;;;;;;17.27;8.98;;;-0.90;99.90;;;;;;5026079;28;20053;-88
2021/12/22 07:36:59;;;;;;;19.70;7.82;;;-2.70;99.90;;;;;;5023253;28;20060;-88
2021/12/22 07:39:24;;;;;;;19.20;8.13;;;-2.60;99.90;;;;;;5043723;28;20094;-87
2021/12/22 07:41:50;;;;;;;16.85;7.50;;;-2.60;99.90;;;;;;5044765;28;20131;-86
2021/12/22 07:44:16;;;;;;;17.67;8.07;;;-2.60;99.90;;;;;;5049730;28;20049;-88
2021/12/22 07:46:42;;;;;;;18.85;8.95;;;-2.60;99.90;;;;;;5047612;28;20057;-85
2021/12/22 07:49:08;;;;;;;19.95;8.13;;;-2.60;99.90;;;;;;5049744;28;20405;-87
2021/12/22 07:51:37;;;;;;;13.98;7.03;;;-2.60;99.90;;;;;;5050054;28;20110;-87
2021/12/22 07:54:06;;;;;;;15.23;7.35;;;-0.50;99.90;;;;;;5032059;28;20075;-87
2021/12/22 07:56:32;;;;;;;12.60;7.07;;;-3.70;99.90;;;;;;5033276;28;20045;-86
2021/12/22 07:58:58;;;;;;;18.75;7.90;;;-2.80;99.90;;;;;;5028944;28;20045;-86
2021/12/22 08:01:24;;;;;;;13.43;7.43;;;-2.20;99.90;;;;;;5033617;28;20052;-83
2021/12/22 08:03:49;;;;;;;23.13;8.05;;;-1.30;99.90;;;;;;5035478;28;20091;-93
2021/12/22 08:06:15;;;;;;;21.83;8.18;;;-1.70;99.90;;;;;;5035122;28;20045;-86
2021/12/22 08:08:41;;;;;;;16.77;8.55;;;-0.40;99.90;;;;;;5033769;28;20041;-84
2021/12/22 08:11:07;;;;;;;14.43;6.80;;;-1.80;99.90;;;;;;5036085;28;20048;-88
2021/12/22 08:13:34;;;;;;;19.75;7.43;;;-2.50;99.90;;;;;;5049814;28;20041;-92
2021/12/22 08:16:00;;;;;;;14.82;8.30;;;-0.70;99.90;;;;;;5035003;28;20746;-80
2021/12/22 08:18:26;;;;;;;10.75;6.43;;;-2.50;99.90;;;;;;5066503;28;20103;-91
2021/12/22 08:20:52;;;;;;;14.05;7.13;;;-0.50;99.90;;;;;;5042105;28;20101;-88
2021/12/22 08:23:19;;;;;;;19.30;7.45;;;-2.30;99.90;;;;;;5035744;28;20478;-84
2021/12/22 08:25:48;;;;;;;16.40;7.38;;;-2.30;99.90;;;;;;5051971;28;20553;-88
2021/12/22 08:28:14;;;;;;;15.45;6.43;;;-2.30;99.90;;;;;;5032324;28;20503;-86
2021/12/22 08:30:40;;;;;;;17.05;7.13;;;-2.20;99.90;;;;;;5049711;28;20045;-90
2021/12/22 08:33:13;;;;;;;11.55;5.85;;;-2.10;99.90;;;;;;5034847;28;20433;-94
2021/12/22 08:41:11;;;;;;;19.17;7.63;;;-1.80;99.90;;;;;;5046516;28;20052;-91
2021/12/22 08:43:37;;;;;;;16.63;7.70;;;-1.70;99.90;;;;;;5034101;28;20037;-88
2021/12/22 08:46:03;;;;;;;15.70;6.25;;;-1.70;99.90;;;;;;5029221;28;20061;-90
2021/12/22 08:48:28;;;;;;;15.80;7.07;;;-0.30;99.90;;;;;;5033210;28;20045;-87
2021/12/22 08:50:54;;;;;;;16.48;6.45;;;-1.50;99.90;;;;;;5033077;28;20596;-91
2021/12/22 08:53:20;;;;;;;16.73;6.88;;;-1.50;99.90;;;;;;5030774;28;20450;-89
2021/12/22 08:55:46;;;;;;;15.95;7.28;;;-1.40;99.90;;;;;;5061170;28;20041;-87
2021/12/22 08:58:15;;;;;;;17.10;7.47;;;-1.40;99.90;;;;;;5027467;28;20049;-88
2021/12/22 09:00:40;;;;;;;16.65;7.10;;;1.00;99.90;;;;;;5045541;28;20178;-88
2021/12/22 09:03:06;;;;;;;15.32;6.22;;;-1.30;99.90;;;;;;5044009;28;20081;-87
2021/12/22 09:05:32;;;;;;;13.60;6.30;;;-1.20;99.90;;;;;;5047015;28;20561;-88
2021/12/22 09:07:58;;;;;;;12.82;6.97;;;-1.20;99.90;;;;;;5027334;28;20477;-87
2021/12/22 09:10:23;;;;;;;14.48;7.15;;;-1.10;99.90;;;;;;5029992;28;20048;-86
2021/12/22 09:12:49;;;;;;;20.17;7.47;;;0.50;99.90;;;;;;5044632;28;20532;-87
2021/12/22 09:15:17;;;;;;;19.05;7.10;;;-1.00;99.90;;;;;;5044754;28;20033;-86
2021/12/22 09:17:43;;;;;;;18.13;8.10;;;0.30;99.90;;;;;;5029845;28;20053;-87
2021/12/22 09:20:10;;;;;;;13.75;6.97;;;-0.90;99.90;;;;;;5028144;28;20052;-84
2021/12/22 09:22:36;;;;;;;14.15;6.03;;;-0.80;99.90;;;;;;5029784;28;20045;-88
2021/12/22 09:25:03;;;;;;;14.77;6.78;;;-0.80;99.90;;;;;;5028309;28;20041;-87
2021/12/22 09:27:28;;;;;;;14.27;6.78;;;-0.70;99.90;;;;;;5030778;28;20049;-85
2021/12/22 09:29:54;;;;;;;15.48;6.75;;;-0.60;99.90;;;;;;5028947;28;20048;-89
2021/12/22 09:32:21;;;;;;;15.77;6.53;;;-0.60;99.90;;;;;;5030123;28;20437;-87
2021/12/22 09:34:49;;;;;;;13.38;6.88;;;-0.50;99.90;;;;;;5029004;28;20045;-88
2021/12/22 09:37:16;;;;;;;19.98;6.60;;;-0.50;99.90;;;;;;5026349;28;20045;-87
2021/12/22 09:39:42;;;;;;;19.33;6.70;;;-0.50;99.90;;;;;;5030805;28;20588;-90
2021/12/22 09:42:09;;;;;;;16.75;6.60;;;-0.40;99.90;;;;;;5028073;28;20045;-90
2021/12/22 09:44:48;;;;;;;18.50;6.90;;;-0.20;99.90;;;;;;5045666;28;20052;-89
2021/12/22 09:47:28;;;;;;;16.70;7.13;;;-0.30;99.90;;;;;;5024776;28;20052;-89
2021/12/22 09:50:08;;;;;;;14.65;6.45;;;-0.20;99.90;;;;;;5045080;28;20060;-87
2021/12/22 09:52:36;;;;;;;20.38;8.02;;;0.10;99.90;;;;;;5028883;28;20045;-89
2021/12/22 09:55:03;;;;;;;12.93;6.70;;;1.80;99.90;;;;;;5026109;28;20048;-90
2021/12/22 09:57:30;;;;;;;18.70;6.55;;;-0.10;99.90;;;;;;5026507;28;20052;-92
2021/12/22 09:59:57;;;;;;;15.82;6.25;;;-0.70;99.90;;;;;;5027297;28;20040;-88
2021/12/22 10:02:29;;;;;;;20.80;7.38;;;-0.10;99.90;;;;;;5043866;28;20076;-88
2021/12/22 10:04:59;;;;;;;10.05;5.90;;;1.30;99.90;;;;;;5028952;28;20501;-88
2021/12/22 10:07:36;;;;;;;14.77;6.80;;;-0.10;99.90;;;;;;5022806;28;20589;-89
2021/12/22 10:10:07;;;;;;;13.52;6.35;;;0.60;99.90;;;;;;5028602;28;20037;-89
2021/12/22 10:12:33;;;;;;;14.65;7.00;;;0.00;99.90;;;;;;5026038;28;20049;-90
2021/12/22 10:15:01;;;;;;;14.95;6.50;;;0.00;99.90;;;;;;5027465;28;20053;-90
2021/12/22 10:17:36;;;;;;;14.70;6.50;;;0.80;99.90;;;;;;5026887;28;20092;-89
2021/12/22 10:20:08;;;;;;;13.80;6.47;;;2.50;99.90;;;;;;5043268;28;20119;-89
2021/12/22 10:22:38;;;;;;;8.87;4.67;;;0.00;99.90;;;;;;5027235;28;20127;-89
2021/12/22 10:25:10;;;;;;;15.00;7.10;;;2.20;99.90;;;;;;5038463;28;20284;-91
2021/12/22 10:27:37;;;;;;;12.45;5.95;;;0.10;99.90;;;;;;5045594;28;20045;-89
2021/12/22 10:30:46;;;;;;;16.17;7.07;;;1.50;99.90;;;;;;5025842;28;20326;-92
2021/12/22 10:33:18;;;;;;;16.30;6.28;;;0.60;99.90;;;;;;5023287;28;20044;-88
2021/12/22 10:35:54;;;;;;;15.48;6.65;;;0.10;99.90;;;;;;5047344;28;20044;-93
2021/12/22 10:38:27;;;;;;;15.63;6.43;;;0.20;99.90;;;;;;5025477;28;20564;-90
2021/12/22 10:40:56;;;;;;;12.77;6.50;;;2.20;99.90;;;;;;5026073;28;20052;-91
2021/12/22 10:43:26;;;;;;;12.70;6.00;;;0.20;99.90;;;;;;5027032;28;20576;-85
2021/12/22 10:45:55;;;;;;;14.13;6.65;;;0.30;99.90;;;;;;5041965;28;20138;-90
2021/12/22 10:51:19;;;;;;;11.48;5.63;;;0.30;99.90;;;;;;5039401;28;20056;-95
2021/12/22 10:53:48;;;;;;;12.75;6.53;;;0.30;99.90;;;;;;5029001;28;20045;-93
2021/12/22 10:56:22;;;;;;;13.50;6.40;;;0.30;99.90;;;;;;5027945;28;20041;-90
2021/12/22 10:59:27;;;;;;;13.85;6.53;;;0.30;99.90;;;;;;5025169;28;20059;-91
2021/12/22 11:01:53;;;;;;;14.57;5.75;;;0.30;99.90;;;;;;5027477;28;20052;-93
2021/12/22 11:04:24;;;;;;;24.58;7.43;;;0.30;99.90;;;;;;5026407;28;20056;-92
2021/12/22 11:06:52;;;;;;;17.02;7.53;;;1.10;99.90;;;;;;5026750;28;20040;-92
2021/12/22 11:09:20;;;;;;;20.85;7.95;;;0.30;99.90;;;;;;5027700;28;20045;-87
2021/12/22 11:11:54;;;;;;;17.67;6.40;;;0.30;99.90;;;;;;5039716;28;20037;-94
2021/12/22 11:14:26;;;;;;;12.98;6.35;;;0.40;99.90;;;;;;5027451;28;20130;-89
2021/12/22 11:16:56;;;;;;;14.50;7.35;;;0.50;99.90;;;;;;5023141;28;20045;-87
2021/12/22 11:19:24;;;;;;;16.77;6.88;;;0.30;99.90;;;;;;5043253;28;20528;-87
2021/12/22 11:22:14;;;;;;;16.67;7.10;;;0.30;99.90;;;;;;5026880;28;20036;-90
2021/12/22 11:24:54;;;;;;;11.20;6.32;;;0.30;99.90;;;;;;5023425;28;20053;-89
2021/12/22 11:27:25;;;;;;;14.98;6.70;;;0.30;99.90;;;;;;5026755;28;20051;-89
2021/12/22 11:29:56;;;;;;;24.60;8.15;;;0.30;99.90;;;;;;5024991;28;20041;-87
2021/12/22 11:32:25;;;;;;;16.85;6.53;;;0.30;99.90;;;;;;5042470;28;20076;-89
2021/12/22 11:34:53;;;;;;;18.17;7.15;;;1.00;99.90;;;;;;5044172;28;20060;-88
2021/12/22 11:37:20;;;;;;;15.90;7.28;;;0.30;99.90;;;;;;5041406;28;20100;-88
2021/12/22 11:39:47;;;;;;;15.20;6.70;;;0.40;99.90;;;;;;5027173;28;20037;-90
2021/12/22 11:42:14;;;;;;;11.30;7.03;;;1.50;99.90;;;;;;5024531;28;20123;-95
2021/12/22 11:44:44;;;;;;;12.10;6.72;;;1.30;99.90;;;;;;5026808;28;20064;-91
2021/12/22 11:47:13;;;;;;;14.40;6.75;;;0.60;99.90;;;;;;5041432;28;20041;-89
2021/12/22 11:50:00;;;;;;;14.27;6.97;;;0.70;99.90;;;;;;5042432;28;20057;-88
2021/12/22 11:52:34;;;;;;;16.67;6.30;;;1.10;99.90;;;;;;5026638;28;20131;-89
2021/12/22 11:55:25;;;;;;;16.70;6.95;;;0.70;99.90;;;;;;5040603;28;20045;-88
2021/12/22 11:58:12;;;;;;;11.40;6.60;;;0.70;99.90;;;;;;5025956;28;20404;-86
2021/12/22 12:00:40;;;;;;;23.05;7.68;;;2.90;99.90;;;;;;5026144;28;20056;-88
2021/12/22 12:03:22;;;;;;;12.98;6.32;;;0.70;99.90;;;;;;5040726;28;20040;-89
2021/12/22 12:06:11;;;;;;;17.17;6.82;;;0.70;99.90;;;;;;5043874;28;20044;-89
2021/12/22 12:08:48;;;;;;;13.38;5.68;;;0.60;99.90;;;;;;5041692;28;20052;-87
2021/12/22 12:11:43;;;;;;;13.40;6.93;;;1.40;99.90;;;;;;5040554;28;20052;-89
2021/12/22 12:14:36;;;;;;;11.88;6.63;;;0.50;99.90;;;;;;5026063;28;20060;-86
2021/12/22 12:23:20;;;;;;;14.50;6.72;;;0.60;99.90;;;;;;5043739;28;20041;-86
2021/12/22 12:25:46;;;;;;;14.82;6.55;;;0.50;99.90;;;;;;5041322;28;20048;-86
2021/12/22 12:28:18;;;;;;;12.50;6.57;;;0.50;99.90;;;;;;5026140;28;20045;-88
2021/12/22 12:30:49;;;;;;;17.38;6.60;;;0.50;99.90;;;;;;5030042;28;20044;-87
2021/12/22 12:33:32;;;;;;;14.98;6.45;;;2.70;99.90;;;;;;5044409;28;20438;-85
2021/12/22 12:36:09;;;;;;;14.80;7.22;;;1.80;99.90;;;;;;5046689;28;20056;-86
2021/12/22 12:38:40;;;;;;;10.77;5.78;;;0.60;99.90;;;;;;5044264;28;20048;-87
2021/12/22 12:41:16;;;;;;;15.27;6.60;;;0.70;99.90;;;;;;5044101;28;20045;-85
2021/12/22 12:43:45;;;;;;;13.40;7.20;;;0.70;99.90;;;;;;5046156;28;20512;-84
2021/12/22 12:49:15;;;;;;;16.55;6.85;;;0.70;99.90;;;;;;5041133;28;20424;-83
2021/12/22 12:51:49;;;;;;;13.07;6.75;;;0.70;99.90;;;;;;5028892;28;20045;-85
2021/12/22 12:54:18;;;;;;;12.80;6.15;;;0.70;99.90;;;;;;5026860;28;20045;-86
2021/12/22 12:56:44;;;;;;;12.23;6.47;;;0.70;99.90;;;;;;5046099;28;20049;-83
2021/12/22 12:59:11;;;;;;;15.35;6.75;;;0.70;99.90;;;;;;5027328;28;20051;-83
2021/12/22 13:01:46;;;;;;;12.15;6.63;;;0.70;99.90;;;;;;5046115;28;20085;-82
2021/12/22 13:04:38;;;;;;;10.02;5.65;;;0.70;99.90;;;;;;5044504;28;20044;-84
2021/12/22 13:07:19;;;;;;;17.02;6.72;;;0.70;99.90;;;;;;5027464;28;20063;-85
2021/12/22 13:10:15;;;;;;;8.98;5.32;;;0.70;99.90;;;;;;5046299;28;20063;-86
2021/12/22 13:18:05;;;;;;;10.90;6.10;;;1.50;99.90;;;;;;5045052;28;20064;-83
2021/12/22 13:20:38;;;;;;;12.52;6.45;;;0.60;99.90;;;;;;5043184;28;20045;-83
2021/12/22 13:23:08;;;;;;;12.77;6.75;;;0.60;99.90;;;;;;5045276;28;20045;-84